• Join FlightAware (Why Join?)
  • Login
  • US Flag 
03:39AM EDT


 

Airport Tracker/Info


-or-


 

Live Flight TrackerFlight Track Log ✈ ASQ5941 ✈ 25-Apr-2013 ✈ KAVP - KORD

Flight Track Log - Related Links

Times and Time Zones

All times are in EDT time to prevent confusion due to time zone crossing. See the ASQ5941 flight status page for this flight to view local times or setup timezone preferences in your user account.

Time Position Orientation Groundspeed Altitude Reporting Facility
EDT Latitude Longitude Course Direction KTS MPH feet Rate Location/Type
05:17PM 41.2694 -75.7919 222° Southwest 191 220 4,600  Level New York Center
05:18PM 41.3158 -75.8314 327° Northwest 228 262 6,200 1,680 Climbing New York Center
05:19PM 41.3773 -75.8547 304° West  Level FlightAware Approximate
05:19PM 41.3833 -75.8558 345° North 233 268 8,000  Level New York Center
05:20PM 41.4242 -75.9378 315° West  Level FlightAware Approximate
05:20PM 41.4392 -75.9183 320° Northwest 244 281 8,700  Level New York Center
05:21PM 41.4724 -76.0243 315° West  Level FlightAware Approximate
05:21PM 41.4969 -75.9781 322° Northwest 255 293 11,000  Level New York Center
05:22PM 41.5290 -76.1018 312° West  Level FlightAware Approximate
05:22PM 41.5667 -76.0472 323° Northwest 282 325 12,400  Level New York Center
05:23PM 41.6383 -76.1194 323° Northwest 304 350 13,400 1,140 Climbing New York Center
05:24PM 41.6781 -76.2114 300° West 309 356 14,700 1,320 Climbing New York Center
05:25PM 41.7125 -76.3228 293° West 326 375 16,100 6,300 Climbing New York Center
05:28PM 41.7908 -76.5975 291° West 333 383 36,000 1,200 Climbing Cleveland Center
05:29PM 41.8239 -76.7125 291° West 333 383 20,300 -7,260 Descending Cleveland Center
05:30PM 41.8550 -76.8306 290° West 333 383 21,500 1,200 Climbing Cleveland Center
05:31PM 41.8881 -76.9486 291° West 333 383 22,700 1,080 Climbing Cleveland Center
05:32PM 41.9208 -77.0694 290° West 333 383 23,700 900 Climbing Cleveland Center
05:33PM 41.9558 -77.1906 291° West 345 397 24,600 900 Climbing Cleveland Center
05:34PM 41.9864 -77.3144 288° West 345 397 25,600 960 Climbing Cleveland Center
05:35PM 42.0192 -77.4414 289° West 345 397 26,600 3,420 Climbing Cleveland Center
05:37PM 42.0886 -77.6983 290° West 345 397 36,000 780 Climbing Cleveland Center
05:38PM 42.1208 -77.8228 289° West 345 397 29,000 -3,180 Descending Cleveland Center
05:39PM 42.1550 -77.9447 291° West 350 403 29,700 720 Climbing Cleveland Center
05:40PM 42.1889 -78.0722 290° West 350 403 30,500 780 Climbing Cleveland Center
05:41PM 42.2189 -78.2028 287° West 360 414 31,300 720 Climbing Cleveland Center
05:42PM 42.2547 -78.3306 291° West 365 420 32,000 720 Climbing Cleveland Center
05:43PM 42.2864 -78.4586 289° West 365 420 32,800 600 Climbing Cleveland Center
05:44PM 42.3200 -78.5950 288° West 365 420 33,300 600 Climbing Cleveland Center
05:45PM 42.3558 -78.7317 290° West 371 427 34,100 840 Climbing Cleveland Center
05:46PM 42.3892 -78.8628 289° West 371 427 35,000 840 Climbing Cleveland Center
05:47PM 42.4178 -78.9828 288° West 376 433 35,800 480 Climbing Cleveland Center
05:48PM 42.4575 -79.1339 290° West 376 433 36,000 60 Climbing Cleveland Center
05:49PM 42.4903 -79.2767 287° West 387 445 36,000  Level Cleveland Center
05:50PM 42.5022 -79.4231 276° West 393 452 36,000  Level Cleveland Center
05:51PM 42.5058 -79.5750 272° West 398 458 36,000  Level Cleveland Center
05:52PM 42.5133 -79.7242 274° West 404 465 36,000  Level Cleveland Center
05:53PM 42.5247 -79.8733 276° West 404 465 36,000  Level Cleveland Center
05:54PM 42.5256 -80.0083 271° West 404 465 36,000  Level Cleveland Center
05:55PM 42.5303 -80.1578 273° West 404 465 36,000  Level Cleveland Center
05:56PM 42.5392 -80.3097 275° West 404 465 36,000  Level Cleveland Center
05:57PM 42.5436 -80.4592 272° West 399 459 36,000  Level Cleveland Center
05:58PM 42.5497 -80.6114 273° West 406 467 36,000  Level Cleveland Center
05:59PM 42.5581 -80.7747 274° West 406 467 36,000  Level Cleveland Center
06:00PM 42.5619 -80.9242 272° West 406 467 36,000  Level Cleveland Center
06:01PM 42.5675 -81.0736 273° West 401 461 36,000  Level Cleveland Center
06:02PM 42.5731 -81.2231 273° West 401 461 36,000  Level Cleveland Center
06:03PM 42.5764 -81.3725 272° West 401 461 36,000  Level Cleveland Center
06:04PM 42.5939 -81.5139 280° West 401 461 36,000  Level Cleveland Center
06:05PM 42.6197 -81.6611 283° West 401 461 36,000  Level Cleveland Center
06:06PM 42.6394 -81.7769 283° West 401 461 36,000  Level Cleveland Center
06:07PM 42.6669 -81.9386 283° West 395 455 36,000  Level Cleveland Center
06:08PM 42.6922 -82.0831 283° West 395 455 36,000  Level Cleveland Center
06:09PM 42.7172 -82.2278 283° West 395 455 36,000  Level Cleveland Center
06:10PM 42.7422 -82.3669 284° West 395 455 36,000  Level Cleveland Center
06:11PM 42.7650 -82.5119 282° West 393 452 36,000  Level Cleveland Center
06:12PM 42.7894 -82.6597 283° West 393 452 36,000  Level Cleveland Center
06:13PM 42.8139 -82.7994 283° West 393 452 36,000 -60 Level Cleveland Center
06:14PM 42.8361 -82.9417 282° West 393 452 35,900 -540 Descending Cleveland Center
06:15PM 42.8603 -83.0842 283° West 393 452 35,000 -960 Descending Cleveland Center
06:16PM 42.8819 -83.2325 281° West 393 452 34,000 -1,020 Descending Cleveland Center
06:17PM 42.8847 -83.3828 271° West 393 452 33,000 -540 Descending Cleveland Center
06:18PM 42.8850 -83.5331 270° West 398 458 33,000 -540 Level Cleveland Center
06:19PM 42.8828 -83.7031 269° West 404 465 32,000 -540 Descending Cleveland Center
06:20PM 42.8828 -83.8531 270° West 404 465 32,000  Level Cleveland Center
06:21PM 42.8847 -84.0033 271° West 404 465 32,000  Level Cleveland Center
06:22PM 42.8842 -84.1564 270° West 404 465 32,000  Level Cleveland Center
06:23PM 42.8836 -84.3067 270° West 404 465 32,000  Level Cleveland Center
06:24PM 42.8844 -84.4658 270° West 399 459 32,000  Level Chicago Center
06:25PM 42.8817 -84.6161 269° West 399 459 32,000  Level Chicago Center
06:26PM 42.8656 -84.7664 262° West 400 460 32,000  Level Chicago Center
06:27PM 42.8467 -84.9461 262° West 399 459 32,000 -180 Level Chicago Center
06:28PM 42.8303 -85.0981 262° West 403 464 31,700 -900 Descending Chicago Center
06:29PM 42.8136 -85.2469 261° West 400 460 30,200 -1,500 Descending Chicago Center
06:30PM 42.7978 -85.3967 262° West 398 458 28,700 -1,500 Descending Chicago Center
06:31PM 42.7775 -85.5508 260° West 411 473 27,200 -1,500 Descending Chicago Center
06:32PM 42.7494 -85.7033 256° West 414 476 25,600 -1,500 Descending Chicago Center
06:33PM 42.7228 -85.8517 256° West 404 465 24,100 -1,620 Descending Chicago Center
06:34PM 42.6914 -86.0256 256° West 393 452 22,300 -1,620 Descending Chicago Center
06:35PM 42.6658 -86.1647 256° West 382 440 20,800 -1,140 Descending Chicago Center
06:36PM 42.6406 -86.3025 256° West 377 434 20,000 -720 Descending Chicago Center
06:37PM 42.6150 -86.4353 255° West 366 421 19,400 -1,080 Descending Chicago Center
06:38PM 42.5900 -86.5664 256° West 360 414 17,800 -1,920 Descending Chicago Center
06:40PM 42.5527 -86.7064 250° West  Level FlightAware Approximate
06:40PM 42.5375 -86.8178 250° West 350 403 13,600  Level Chicago Center
06:42PM 42.4981 -86.9589 249° West 338 389 11,700 -1,500 Descending Chicago Center
06:43PM 42.4633 -87.0781 248° West 339 390 10,500 -840 Descending Chicago Center
06:44PM 42.4322 -87.1931 250° West 327 376 10,000 -780 Descending Chicago Center
06:45PM 42.3975 -87.2764 241° Southwest 288 331 9,000 -480 Descending Chicago Center
06:46PM 42.3039 -87.2647 175° South 297 342 9,000  Level Chicago Center
06:47PM 42.2333 -87.2528 173° South 292 336 9,000 -540 Level Chicago Center
06:48PM 42.1372 -87.2386 174° South 289 333 8,000 -960 Descending Chicago Center
06:49PM 42.0717 -87.2633 196° South 263 303 7,100 -540 Descending Chicago Center
06:50PM 42.0242 -87.3356 228° Southwest 261 300 7,000 -120 Descending Chicago Center
06:50PM 42.0000 -87.3833 236° Southwest 256 295 7,000  Level Chicago TRACON
06:51PM 41.9833 -87.4667 255° West 255 293 7,000 -720 Level Chicago TRACON
06:52PM 41.9833 -87.5667 270° West 240 276 5,600 -1,500 Descending Chicago TRACON
06:53PM 41.9833 -87.6500 270° West 247 284 4,100 -1,380 Descending Chicago TRACON
06:54PM 41.9833 -87.7333 270° West 200 230 2,900 -1,200 Descending Chicago TRACON